Aérodrome :
LOGIN :

S'inscrire | Disclaimer

   EN    FR    IT 

 










Légende :    VFR   VFR Marginal   IFR   IFR Intensif   IFR Très Intensif
Visi : 
Plafond : 
>= 8 km
>= 3000ft
5 à 8 km
1000 à 3000 ft
1500m à 5 km
500 à 1000 ft
800 à 1500m
200 à 500 ft
< 800m
< 200 ft
Symboles :   Orages  Brouillard  Fortes neiges  Fortes précipitations  Vent > 20 kt
SIGMETs :   Divers  Orages  Givrage  Turbulence  Onde Orograph.  Cendres Volcan.






- Altitude de l'aérodrome : 735 ft
- Code IATA : EGO


UUOB - Belgorod

DERNIER METAR :
  • 271130Z 18003MPS CAVOK 10/05 Q0996 R11/190057 NOSIG

METARs EXPIRÉS :
  • 271100Z 19005MPS CAVOK 09/04 Q0996 R11/190057 NOSIG
  • 271030Z 18005MPS CAVOK 09/05 Q0996 R11/190057 NOSIG
  • 271000Z 18004MPS 9999 SCT014 09/05 Q0996 R11/190057 NOSIG
  • 270930Z 18005MPS 9999 BKN010 08/04 Q0996 R11/190057 NOSIG
  • 270900Z 19005MPS 9999 BKN010 07/04 Q0997 R11/190057 NOSIG
  • 270830Z 18005MPS 9999 BKN010 06/03 Q0997 R11/190057 NOSIG

TAF TAF UUOB
Valide du 27 à 12h jusqu'au 27 à 21h UTC


271100Z 2712/2721 18006MPS 9999 BKN025
TEMPO 2718/2721 3100 BR OVC005



MET'MAP, la Météo Aéronautique d'un coup d'oeil ! - Copyright ORBIFLY Décembre 2007 - Disclaimer

ORBIFLY MET'MAP TEAM :

Programmation & Développement : Alexandra Zaïnal
Sur une idée originale de : Baudouin d'Aumeries
Assistance à la programmation : Marc-Olivier Méhu
Soutien technique & logistique : Manuel Goepfert

Contact : metmap@orbifly.com




SOURCES & CREDITS :

   NOAA